sensor_id;sensor_type;location;lat;lon;timestamp;P1;durP1;ratioP1;P2;durP2;ratioP2
46815;SDS011;32787;53.316;8.670;2022-07-23T00:01:00;3.92;;;1.73;;
46815;SDS011;32787;53.316;8.670;2022-07-23T00:03:26;5.82;;;1.88;;
46815;SDS011;32787;53.316;8.670;2022-07-23T00:05:51;6.18;;;1.65;;
46815;SDS011;32787;53.316;8.670;2022-07-23T00:08:17;7.65;;;1.65;;
46815;SDS011;32787;53.316;8.670;2022-07-23T00:10:43;5.57;;;1.77;;
46815;SDS011;32787;53.316;8.670;2022-07-23T00:13:09;6.28;;;1.58;;
46815;SDS011;32787;53.316;8.670;2022-07-23T00:15:34;6.18;;;1.80;;
46815;SDS011;32787;53.316;8.670;2022-07-23T00:18:00;8.20;;;2.15;;
46815;SDS011;32787;53.316;8.670;2022-07-23T00:20:26;6.00;;;2.10;;
46815;SDS011;32787;53.316;8.670;2022-07-23T00:22:53;5.57;;;1.92;;
46815;SDS011;32787;53.316;8.670;2022-07-23T00:25:20;5.97;;;1.95;;
46815;SDS011;32787;53.316;8.670;2022-07-23T00:27:47;6.07;;;2.20;;
46815;SDS011;32787;53.316;8.670;2022-07-23T00:30:13;6.47;;;2.00;;
46815;SDS011;32787;53.316;8.670;2022-07-23T00:32:46;6.00;;;2.05;;
46815;SDS011;32787;53.316;8.670;2022-07-23T00:35:19;8.02;;;2.60;;
46815;SDS011;32787;53.316;8.670;2022-07-23T00:37:45;7.13;;;2.42;;
46815;SDS011;32787;53.316;8.670;2022-07-23T00:40:11;6.03;;;2.25;;
46815;SDS011;32787;53.316;8.670;2022-07-23T00:42:37;7.00;;;2.20;;
46815;SDS011;32787;53.316;8.670;2022-07-23T00:45:04;4.65;;;2.30;;
46815;SDS011;32787;53.316;8.670;2022-07-23T00:47:30;5.90;;;2.10;;
46815;SDS011;32787;53.316;8.670;2022-07-23T00:49:56;5.47;;;1.95;;
46815;SDS011;32787;53.316;8.670;2022-07-23T00:52:21;13.95;;;2.47;;
46815;SDS011;32787;53.316;8.670;2022-07-23T00:54:47;7.78;;;2.40;;
46815;SDS011;32787;53.316;8.670;2022-07-23T00:57:13;15.00;;;2.47;;
46815;SDS011;32787;53.316;8.670;2022-07-23T00:59:39;5.72;;;2.78;;
46815;SDS011;32787;53.316;8.670;2022-07-23T01:02:05;7.75;;;2.80;;
46815;SDS011;32787;53.316;8.670;2022-07-23T01:04:31;10.02;;;2.60;;
46815;SDS011;32787;53.316;8.670;2022-07-23T01:06:57;6.35;;;2.40;;
46815;SDS011;32787;53.316;8.670;2022-07-23T01:09:23;10.07;;;2.45;;
46815;SDS011;32787;53.316;8.670;2022-07-23T01:11:49;9.43;;;2.58;;
46815;SDS011;32787;53.316;8.670;2022-07-23T01:14:17;5.80;;;2.47;;
46815;SDS011;32787;53.316;8.670;2022-07-23T01:16:44;9.35;;;2.95;;
46815;SDS011;32787;53.316;8.670;2022-07-23T01:19:11;7.65;;;3.08;;
46815;SDS011;32787;53.316;8.670;2022-07-23T01:21:41;6.82;;;2.58;;
46815;SDS011;32787;53.316;8.670;2022-07-23T01:24:09;7.40;;;2.60;;
46815;SDS011;32787;53.316;8.670;2022-07-23T01:26:35;5.65;;;2.20;;
46815;SDS011;32787;53.316;8.670;2022-07-23T01:29:02;5.68;;;2.40;;
46815;SDS011;32787;53.316;8.670;2022-07-23T01:31:28;7.45;;;2.90;;
46815;SDS011;32787;53.316;8.670;2022-07-23T01:33:54;5.82;;;2.78;;
46815;SDS011;32787;53.316;8.670;2022-07-23T01:36:19;7.40;;;2.53;;
46815;SDS011;32787;53.316;8.670;2022-07-23T01:38:45;6.82;;;3.00;;
46815;SDS011;32787;53.316;8.670;2022-07-23T01:41:11;8.90;;;3.25;;
46815;SDS011;32787;53.316;8.670;2022-07-23T01:43:36;8.63;;;3.20;;
46815;SDS011;32787;53.316;8.670;2022-07-23T01:46:02;8.10;;;2.97;;
46815;SDS011;32787;53.316;8.670;2022-07-23T01:48:27;8.80;;;2.83;;
46815;SDS011;32787;53.316;8.670;2022-07-23T01:50:53;7.30;;;3.20;;
46815;SDS011;32787;53.316;8.670;2022-07-23T01:53:19;6.90;;;2.85;;
46815;SDS011;32787;53.316;8.670;2022-07-23T01:55:44;6.90;;;2.65;;
46815;SDS011;32787;53.316;8.670;2022-07-23T01:58:10;9.90;;;3.25;;
46815;SDS011;32787;53.316;8.670;2022-07-23T02:00:36;6.28;;;2.78;;
46815;SDS011;32787;53.316;8.670;2022-07-23T02:03:01;6.05;;;2.75;;
46815;SDS011;32787;53.316;8.670;2022-07-23T02:05:27;9.50;;;3.50;;
46815;SDS011;32787;53.316;8.670;2022-07-23T02:07:57;6.13;;;2.65;;
46815;SDS011;32787;53.316;8.670;2022-07-23T02:10:23;5.57;;;2.88;;
46815;SDS011;32787;53.316;8.670;2022-07-23T02:12:49;7.43;;;3.20;;
46815;SDS011;32787;53.316;8.670;2022-07-23T02:15:14;6.40;;;2.75;;
46815;SDS011;32787;53.316;8.670;2022-07-23T02:17:40;4.55;;;2.38;;
46815;SDS011;32787;53.316;8.670;2022-07-23T02:20:06;8.20;;;3.15;;
46815;SDS011;32787;53.316;8.670;2022-07-23T02:22:32;5.93;;;2.60;;
46815;SDS011;32787;53.316;8.670;2022-07-23T02:24:58;5.90;;;3.10;;
46815;SDS011;32787;53.316;8.670;2022-07-23T02:27:24;6.18;;;2.92;;
46815;SDS011;32787;53.316;8.670;2022-07-23T02:29:49;8.07;;;3.30;;
46815;SDS011;32787;53.316;8.670;2022-07-23T02:32:15;8.25;;;3.10;;
46815;SDS011;32787;53.316;8.670;2022-07-23T02:34:41;7.97;;;3.03;;
46815;SDS011;32787;53.316;8.670;2022-07-23T02:37:06;6.15;;;2.92;;
46815;SDS011;32787;53.316;8.670;2022-07-23T02:39:33;7.25;;;3.28;;
46815;SDS011;32787;53.316;8.670;2022-07-23T02:41:59;5.50;;;2.83;;
46815;SDS011;32787;53.316;8.670;2022-07-23T02:44:25;6.30;;;2.90;;
46815;SDS011;32787;53.316;8.670;2022-07-23T02:46:51;8.18;;;3.40;;
46815;SDS011;32787;53.316;8.670;2022-07-23T02:49:17;8.55;;;3.00;;
46815;SDS011;32787;53.316;8.670;2022-07-23T02:51:42;8.20;;;2.95;;
46815;SDS011;32787;53.316;8.670;2022-07-23T02:54:08;7.65;;;3.38;;
46815;SDS011;32787;53.316;8.670;2022-07-23T02:56:33;6.80;;;2.95;;
46815;SDS011;32787;53.316;8.670;2022-07-23T02:58:59;10.80;;;3.08;;
46815;SDS011;32787;53.316;8.670;2022-07-23T03:01:25;10.13;;;3.25;;
46815;SDS011;32787;53.316;8.670;2022-07-23T03:03:51;9.40;;;2.92;;
46815;SDS011;32787;53.316;8.670;2022-07-23T03:06:16;11.95;;;3.10;;
46815;SDS011;32787;53.316;8.670;2022-07-23T03:08:42;5.75;;;3.20;;
46815;SDS011;32787;53.316;8.670;2022-07-23T03:11:08;9.95;;;4.28;;
46815;SDS011;32787;53.316;8.670;2022-07-23T03:13:36;7.57;;;3.65;;
46815;SDS011;32787;53.316;8.670;2022-07-23T03:16:02;6.80;;;3.20;;
46815;SDS011;32787;53.316;8.670;2022-07-23T03:18:28;7.82;;;2.88;;
46815;SDS011;32787;53.316;8.670;2022-07-23T03:20:54;6.07;;;2.90;;
46815;SDS011;32787;53.316;8.670;2022-07-23T03:23:20;7.38;;;3.40;;
46815;SDS011;32787;53.316;8.670;2022-07-23T03:25:45;10.27;;;3.25;;
46815;SDS011;32787;53.316;8.670;2022-07-23T03:28:14;8.73;;;4.18;;
46815;SDS011;32787;53.316;8.670;2022-07-23T03:30:41;7.95;;;3.15;;
46815;SDS011;32787;53.316;8.670;2022-07-23T03:33:18;6.13;;;3.28;;
46815;SDS011;32787;53.316;8.670;2022-07-23T03:35:44;6.10;;;2.60;;
46815;SDS011;32787;53.316;8.670;2022-07-23T03:38:11;7.93;;;3.78;;
46815;SDS011;32787;53.316;8.670;2022-07-23T03:40:37;7.05;;;3.72;;
46815;SDS011;32787;53.316;8.670;2022-07-23T03:43:03;8.50;;;3.70;;
46815;SDS011;32787;53.316;8.670;2022-07-23T03:45:29;7.50;;;3.67;;
46815;SDS011;32787;53.316;8.670;2022-07-23T03:47:54;12.45;;;4.10;;
46815;SDS011;32787;53.316;8.670;2022-07-23T03:50:20;6.95;;;3.38;;
46815;SDS011;32787;53.316;8.670;2022-07-23T03:52:46;8.02;;;3.80;;
46815;SDS011;32787;53.316;8.670;2022-07-23T03:55:11;7.80;;;3.60;;
46815;SDS011;32787;53.316;8.670;2022-07-23T03:57:37;6.85;;;3.42;;
46815;SDS011;32787;53.316;8.670;2022-07-23T04:00:04;9.95;;;3.38;;
46815;SDS011;32787;53.316;8.670;2022-07-23T04:02:32;7.10;;;3.70;;
46815;SDS011;32787;53.316;8.670;2022-07-23T04:04:57;10.05;;;3.55;;
46815;SDS011;32787;53.316;8.670;2022-07-23T04:07:24;8.23;;;3.58;;
46815;SDS011;32787;53.316;8.670;2022-07-23T04:09:50;9.32;;;3.92;;
46815;SDS011;32787;53.316;8.670;2022-07-23T04:12:15;7.93;;;3.50;;
46815;SDS011;32787;53.316;8.670;2022-07-23T04:14:41;8.00;;;3.53;;
46815;SDS011;32787;53.316;8.670;2022-07-23T04:17:07;9.13;;;4.15;;
46815;SDS011;32787;53.316;8.670;2022-07-23T04:19:32;9.73;;;3.80;;
46815;SDS011;32787;53.316;8.670;2022-07-23T04:21:58;11.13;;;3.63;;
46815;SDS011;32787;53.316;8.670;2022-07-23T04:24:23;6.95;;;3.40;;
46815;SDS011;32787;53.316;8.670;2022-07-23T04:26:49;12.30;;;4.18;;
46815;SDS011;32787;53.316;8.670;2022-07-23T04:29:15;7.57;;;4.25;;
46815;SDS011;32787;53.316;8.670;2022-07-23T04:31:40;10.00;;;3.47;;
46815;SDS011;32787;53.316;8.670;2022-07-23T04:34:06;6.97;;;3.50;;
46815;SDS011;32787;53.316;8.670;2022-07-23T04:36:31;9.40;;;4.00;;
46815;SDS011;32787;53.316;8.670;2022-07-23T04:38:57;8.27;;;3.70;;
46815;SDS011;32787;53.316;8.670;2022-07-23T04:41:23;10.25;;;3.50;;
46815;SDS011;32787;53.316;8.670;2022-07-23T04:43:48;9.73;;;3.38;;
46815;SDS011;32787;53.316;8.670;2022-07-23T04:46:14;7.13;;;3.22;;
46815;SDS011;32787;53.316;8.670;2022-07-23T04:48:40;9.30;;;3.55;;
46815;SDS011;32787;53.316;8.670;2022-07-23T04:51:07;7.30;;;3.60;;
46815;SDS011;32787;53.316;8.670;2022-07-23T04:53:33;10.02;;;3.70;;
46815;SDS011;32787;53.316;8.670;2022-07-23T04:55:59;11.20;;;3.60;;
46815;SDS011;32787;53.316;8.670;2022-07-23T04:58:25;7.85;;;3.00;;
46815;SDS011;32787;53.316;8.670;2022-07-23T05:00:50;8.15;;;3.95;;
46815;SDS011;32787;53.316;8.670;2022-07-23T05:03:16;5.28;;;2.90;;
46815;SDS011;32787;53.316;8.670;2022-07-23T05:05:42;8.50;;;3.80;;
46815;SDS011;32787;53.316;8.670;2022-07-23T05:08:08;6.90;;;3.28;;
46815;SDS011;32787;53.316;8.670;2022-07-23T05:10:33;8.82;;;2.95;;
46815;SDS011;32787;53.316;8.670;2022-07-23T05:12:59;7.20;;;2.63;;
46815;SDS011;32787;53.316;8.670;2022-07-23T05:15:24;7.07;;;3.58;;
46815;SDS011;32787;53.316;8.670;2022-07-23T05:17:50;8.02;;;3.80;;
46815;SDS011;32787;53.316;8.670;2022-07-23T05:20:16;8.90;;;4.40;;
46815;SDS011;32787;53.316;8.670;2022-07-23T05:22:41;10.88;;;4.82;;
46815;SDS011;32787;53.316;8.670;2022-07-23T05:25:07;10.77;;;4.80;;
46815;SDS011;32787;53.316;8.670;2022-07-23T05:27:33;10.02;;;4.05;;
46815;SDS011;32787;53.316;8.670;2022-07-23T05:29:59;10.60;;;5.10;;
46815;SDS011;32787;53.316;8.670;2022-07-23T05:32:24;8.45;;;4.20;;
46815;SDS011;32787;53.316;8.670;2022-07-23T05:34:50;9.45;;;4.70;;
46815;SDS011;32787;53.316;8.670;2022-07-23T05:37:16;8.43;;;4.07;;
46815;SDS011;32787;53.316;8.670;2022-07-23T05:39:42;10.77;;;4.15;;
46815;SDS011;32787;53.316;8.670;2022-07-23T05:42:08;7.60;;;3.30;;
46815;SDS011;32787;53.316;8.670;2022-07-23T05:44:33;8.18;;;3.63;;
46815;SDS011;32787;53.316;8.670;2022-07-23T05:46:59;7.57;;;3.70;;
46815;SDS011;32787;53.316;8.670;2022-07-23T05:49:25;9.25;;;3.90;;
46815;SDS011;32787;53.316;8.670;2022-07-23T05:51:50;8.23;;;3.80;;
46815;SDS011;32787;53.316;8.670;2022-07-23T05:54:16;6.22;;;3.15;;
46815;SDS011;32787;53.316;8.670;2022-07-23T05:56:42;7.63;;;3.40;;
46815;SDS011;32787;53.316;8.670;2022-07-23T05:59:07;5.72;;;2.35;;
46815;SDS011;32787;53.316;8.670;2022-07-23T06:01:33;6.05;;;2.95;;
46815;SDS011;32787;53.316;8.670;2022-07-23T06:03:59;9.07;;;2.80;;
46815;SDS011;32787;53.316;8.670;2022-07-23T06:06:24;6.53;;;2.95;;
46815;SDS011;32787;53.316;8.670;2022-07-23T06:08:50;5.70;;;2.35;;
46815;SDS011;32787;53.316;8.670;2022-07-23T06:11:15;7.90;;;2.40;;
46815;SDS011;32787;53.316;8.670;2022-07-23T06:13:41;5.07;;;2.15;;
46815;SDS011;32787;53.316;8.670;2022-07-23T06:16:07;5.93;;;2.20;;
46815;SDS011;32787;53.316;8.670;2022-07-23T06:18:32;4.18;;;1.80;;
46815;SDS011;32787;53.316;8.670;2022-07-23T06:20:58;5.82;;;1.88;;
46815;SDS011;32787;53.316;8.670;2022-07-23T06:23:24;4.00;;;1.58;;
46815;SDS011;32787;53.316;8.670;2022-07-23T06:25:49;4.32;;;1.55;;
46815;SDS011;32787;53.316;8.670;2022-07-23T06:28:15;4.80;;;1.60;;
46815;SDS011;32787;53.316;8.670;2022-07-23T06:30:40;5.47;;;1.92;;
46815;SDS011;32787;53.316;8.670;2022-07-23T06:33:06;5.40;;;1.70;;
46815;SDS011;32787;53.316;8.670;2022-07-23T06:35:32;4.03;;;1.58;;
46815;SDS011;32787;53.316;8.670;2022-07-23T06:37:58;3.80;;;1.45;;
46815;SDS011;32787;53.316;8.670;2022-07-23T06:40:24;4.13;;;1.80;;
46815;SDS011;32787;53.316;8.670;2022-07-23T06:42:50;3.45;;;1.38;;
46815;SDS011;32787;53.316;8.670;2022-07-23T06:45:16;3.50;;;1.60;;
46815;SDS011;32787;53.316;8.670;2022-07-23T06:47:41;3.80;;;1.27;;
46815;SDS011;32787;53.316;8.670;2022-07-23T06:50:07;4.32;;;1.50;;
46815;SDS011;32787;53.316;8.670;2022-07-23T06:52:33;4.82;;;1.60;;
46815;SDS011;32787;53.316;8.670;2022-07-23T06:54:59;6.57;;;1.33;;
46815;SDS011;32787;53.316;8.670;2022-07-23T06:57:24;5.93;;;1.75;;
46815;SDS011;32787;53.316;8.670;2022-07-23T06:59:50;6.32;;;1.40;;
46815;SDS011;32787;53.316;8.670;2022-07-23T07:02:16;4.43;;;1.42;;
46815;SDS011;32787;53.316;8.670;2022-07-23T07:04:42;4.32;;;1.23;;
46815;SDS011;32787;53.316;8.670;2022-07-23T07:07:08;3.70;;;1.35;;
46815;SDS011;32787;53.316;8.670;2022-07-23T07:09:34;4.75;;;1.55;;
46815;SDS011;32787;53.316;8.670;2022-07-23T07:11:59;6.75;;;1.60;;
46815;SDS011;32787;53.316;8.670;2022-07-23T07:14:25;4.55;;;1.50;;
46815;SDS011;32787;53.316;8.670;2022-07-23T07:16:51;4.90;;;2.00;;
46815;SDS011;32787;53.316;8.670;2022-07-23T07:19:16;4.38;;;1.63;;
46815;SDS011;32787;53.316;8.670;2022-07-23T07:21:42;7.57;;;1.73;;
46815;SDS011;32787;53.316;8.670;2022-07-23T07:24:08;4.43;;;1.50;;
46815;SDS011;32787;53.316;8.670;2022-07-23T07:26:33;5.22;;;1.70;;
46815;SDS011;32787;53.316;8.670;2022-07-23T07:28:59;5.03;;;2.05;;
46815;SDS011;32787;53.316;8.670;2022-07-23T07:31:25;4.72;;;1.77;;
46815;SDS011;32787;53.316;8.670;2022-07-23T07:33:51;4.10;;;1.70;;
46815;SDS011;32787;53.316;8.670;2022-07-23T07:36:16;5.95;;;2.00;;
46815;SDS011;32787;53.316;8.670;2022-07-23T07:38:42;5.65;;;1.50;;
46815;SDS011;32787;53.316;8.670;2022-07-23T07:41:08;4.20;;;1.83;;
46815;SDS011;32787;53.316;8.670;2022-07-23T07:43:35;4.75;;;1.85;;
46815;SDS011;32787;53.316;8.670;2022-07-23T07:46:01;6.93;;;2.25;;
46815;SDS011;32787;53.316;8.670;2022-07-23T07:48:28;9.40;;;2.30;;
46815;SDS011;32787;53.316;8.670;2022-07-23T07:50:53;5.50;;;2.15;;
46815;SDS011;32787;53.316;8.670;2022-07-23T07:53:19;5.97;;;2.20;;
46815;SDS011;32787;53.316;8.670;2022-07-23T07:55:45;4.28;;;1.90;;
46815;SDS011;32787;53.316;8.670;2022-07-23T07:58:11;6.75;;;1.90;;
46815;SDS011;32787;53.316;8.670;2022-07-23T08:00:36;5.78;;;1.60;;
46815;SDS011;32787;53.316;8.670;2022-07-23T08:03:02;5.47;;;1.90;;
46815;SDS011;32787;53.316;8.670;2022-07-23T08:05:28;6.88;;;1.33;;
46815;SDS011;32787;53.316;8.670;2022-07-23T08:07:55;3.88;;;1.50;;
46815;SDS011;32787;53.316;8.670;2022-07-23T08:10:22;6.07;;;2.17;;
46815;SDS011;32787;53.316;8.670;2022-07-23T08:12:48;6.07;;;1.80;;
46815;SDS011;32787;53.316;8.670;2022-07-23T08:15:17;6.50;;;1.90;;
46815;SDS011;32787;53.316;8.670;2022-07-23T08:17:44;3.83;;;1.48;;
46815;SDS011;32787;53.316;8.670;2022-07-23T08:20:11;4.63;;;1.20;;
46815;SDS011;32787;53.316;8.670;2022-07-23T08:22:45;3.83;;;1.45;;
46815;SDS011;32787;53.316;8.670;2022-07-23T08:25:10;4.03;;;1.25;;
46815;SDS011;32787;53.316;8.670;2022-07-23T08:27:36;5.95;;;1.20;;
46815;SDS011;32787;53.316;8.670;2022-07-23T08:30:02;4.00;;;1.17;;
46815;SDS011;32787;53.316;8.670;2022-07-23T08:32:28;4.78;;;1.40;;
46815;SDS011;32787;53.316;8.670;2022-07-23T08:34:54;3.30;;;1.08;;
46815;SDS011;32787;53.316;8.670;2022-07-23T08:37:19;3.58;;;1.23;;
46815;SDS011;32787;53.316;8.670;2022-07-23T08:39:45;3.35;;;1.10;;
46815;SDS011;32787;53.316;8.670;2022-07-23T08:42:11;4.95;;;1.10;;
46815;SDS011;32787;53.316;8.670;2022-07-23T08:44:39;4.13;;;1.17;;
46815;SDS011;32787;53.316;8.670;2022-07-23T08:47:10;3.47;;;0.93;;
46815;SDS011;32787;53.316;8.670;2022-07-23T08:49:37;4.32;;;1.10;;
46815;SDS011;32787;53.316;8.670;2022-07-23T08:52:04;2.90;;;1.00;;
46815;SDS011;32787;53.316;8.670;2022-07-23T08:54:30;3.95;;;0.90;;
46815;SDS011;32787;53.316;8.670;2022-07-23T08:56:56;3.63;;;0.85;;
46815;SDS011;32787;53.316;8.670;2022-07-23T08:59:22;3.35;;;0.90;;
46815;SDS011;32787;53.316;8.670;2022-07-23T09:01:48;3.67;;;0.90;;
46815;SDS011;32787;53.316;8.670;2022-07-23T09:04:13;2.63;;;0.80;;
46815;SDS011;32787;53.316;8.670;2022-07-23T09:06:39;2.80;;;0.80;;
46815;SDS011;32787;53.316;8.670;2022-07-23T09:09:18;2.13;;;0.80;;
46815;SDS011;32787;53.316;8.670;2022-07-23T09:11:48;2.20;;;0.70;;
46815;SDS011;32787;53.316;8.670;2022-07-23T09:14:40;2.70;;;0.80;;
46815;SDS011;32787;53.316;8.670;2022-07-23T09:17:18;2.78;;;0.93;;
46815;SDS011;32787;53.316;8.670;2022-07-23T09:19:44;2.70;;;0.80;;
46815;SDS011;32787;53.316;8.670;2022-07-23T09:22:28;2.83;;;0.98;;
46815;SDS011;32787;53.316;8.670;2022-07-23T09:25:02;2.72;;;0.88;;
46815;SDS011;32787;53.316;8.670;2022-07-23T09:30:18;2.67;;;0.90;;
46815;SDS011;32787;53.316;8.670;2022-07-23T09:38:19;4.05;;;0.82;;
46815;SDS011;32787;53.316;8.670;2022-07-23T09:41:04;3.80;;;1.20;;
46815;SDS011;32787;53.316;8.670;2022-07-23T09:43:36;2.22;;;0.63;;
46815;SDS011;32787;53.316;8.670;2022-07-23T09:48:51;3.17;;;0.70;;
46815;SDS011;32787;53.316;8.670;2022-07-23T09:51:17;2.45;;;0.77;;
46815;SDS011;32787;53.316;8.670;2022-07-23T09:53:56;3.95;;;0.85;;
46815;SDS011;32787;53.316;8.670;2022-07-23T09:56:22;5.15;;;0.80;;
46815;SDS011;32787;53.316;8.670;2022-07-23T09:58:50;3.85;;;0.82;;
46815;SDS011;32787;53.316;8.670;2022-07-23T10:01:36;4.15;;;1.00;;
46815;SDS011;32787;53.316;8.670;2022-07-23T10:04:02;3.97;;;0.70;;
46815;SDS011;32787;53.316;8.670;2022-07-23T10:06:28;2.65;;;0.80;;
46815;SDS011;32787;53.316;8.670;2022-07-23T10:08:56;3.97;;;0.90;;
46815;SDS011;32787;53.316;8.670;2022-07-23T10:11:24;4.07;;;0.68;;
46815;SDS011;32787;53.316;8.670;2022-07-23T10:13:53;2.70;;;0.73;;
46815;SDS011;32787;53.316;8.670;2022-07-23T10:16:21;4.93;;;0.60;;
46815;SDS011;32787;53.316;8.670;2022-07-23T10:18:47;2.25;;;0.70;;
46815;SDS011;32787;53.316;8.670;2022-07-23T10:21:16;2.25;;;0.63;;
46815;SDS011;32787;53.316;8.670;2022-07-23T10:24:16;0.85;;;0.50;;
46815;SDS011;32787;53.316;8.670;2022-07-23T10:37:27;4.32;;;0.70;;
46815;SDS011;32787;53.316;8.670;2022-07-23T10:40:15;1.95;;;0.52;;
46815;SDS011;32787;53.316;8.670;2022-07-23T10:42:43;1.65;;;0.70;;
46815;SDS011;32787;53.316;8.670;2022-07-23T10:45:22;1.92;;;0.65;;
46815;SDS011;32787;53.316;8.670;2022-07-23T10:47:50;2.05;;;0.55;;
46815;SDS011;32787;53.316;8.670;2022-07-23T10:50:29;3.53;;;0.90;;
46815;SDS011;32787;53.316;8.670;2022-07-23T10:57:59;1.55;;;0.80;;
46815;SDS011;32787;53.316;8.670;2022-07-23T11:00:33;3.03;;;0.70;;
46815;SDS011;32787;53.316;8.670;2022-07-23T11:03:00;2.78;;;0.90;;
46815;SDS011;32787;53.316;8.670;2022-07-23T11:34:32;4.45;;;0.70;;
46815;SDS011;32787;53.316;8.670;2022-07-23T11:37:00;3.63;;;0.80;;
46815;SDS011;32787;53.316;8.670;2022-07-23T11:39:28;1.88;;;0.63;;
46815;SDS011;32787;53.316;8.670;2022-07-23T11:41:55;6.15;;;0.85;;
46815;SDS011;32787;53.316;8.670;2022-07-23T11:44:35;5.75;;;0.93;;
46815;SDS011;32787;53.316;8.670;2022-07-23T11:47:04;3.67;;;0.80;;
46815;SDS011;32787;53.316;8.670;2022-07-23T11:49:31;4.60;;;1.00;;
46815;SDS011;32787;53.316;8.670;2022-07-23T11:52:04;4.97;;;1.08;;
46815;SDS011;32787;53.316;8.670;2022-07-23T11:54:31;3.90;;;1.20;;
46815;SDS011;32787;53.316;8.670;2022-07-23T11:56:58;5.07;;;0.98;;
46815;SDS011;32787;53.316;8.670;2022-07-23T11:59:25;1.55;;;0.80;;
46815;SDS011;32787;53.316;8.670;2022-07-23T12:01:57;4.13;;;0.80;;
46815;SDS011;32787;53.316;8.670;2022-07-23T12:04:24;5.68;;;0.90;;
46815;SDS011;32787;53.316;8.670;2022-07-23T12:07:01;3.97;;;0.90;;
46815;SDS011;32787;53.316;8.670;2022-07-23T12:09:27;4.43;;;0.80;;
46815;SDS011;32787;53.316;8.670;2022-07-23T12:11:57;2.03;;;0.73;;
46815;SDS011;32787;53.316;8.670;2022-07-23T12:14:26;2.92;;;0.80;;
46815;SDS011;32787;53.316;8.670;2022-07-23T12:17:07;3.05;;;0.73;;
46815;SDS011;32787;53.316;8.670;2022-07-23T12:19:36;6.07;;;0.93;;
46815;SDS011;32787;53.316;8.670;2022-07-23T12:22:02;2.20;;;0.90;;
46815;SDS011;32787;53.316;8.670;2022-07-23T12:24:28;2.67;;;0.70;;
46815;SDS011;32787;53.316;8.670;2022-07-23T12:27:10;2.65;;;0.80;;
46815;SDS011;32787;53.316;8.670;2022-07-23T12:29:36;3.72;;;1.00;;
46815;SDS011;32787;53.316;8.670;2022-07-23T12:32:02;2.45;;;0.88;;
46815;SDS011;32787;53.316;8.670;2022-07-23T12:34:49;4.30;;;0.85;;
46815;SDS011;32787;53.316;8.670;2022-07-23T12:37:28;3.17;;;0.65;;
46815;SDS011;32787;53.316;8.670;2022-07-23T12:39:56;3.28;;;0.73;;
46815;SDS011;32787;53.316;8.670;2022-07-23T12:42:21;1.55;;;0.70;;
46815;SDS011;32787;53.316;8.670;2022-07-23T12:45:10;2.03;;;0.70;;
46815;SDS011;32787;53.316;8.670;2022-07-23T12:50:38;2.47;;;0.68;;
46815;SDS011;32787;53.316;8.670;2022-07-23T12:53:08;2.30;;;0.50;;
46815;SDS011;32787;53.316;8.670;2022-07-23T12:55:41;3.92;;;1.05;;
46815;SDS011;32787;53.316;8.670;2022-07-23T13:06:41;2.50;;;0.70;;
46815;SDS011;32787;53.316;8.670;2022-07-23T13:09:11;3.42;;;0.90;;
46815;SDS011;32787;53.316;8.670;2022-07-23T13:11:38;2.13;;;0.80;;
46815;SDS011;32787;53.316;8.670;2022-07-23T13:14:04;2.60;;;0.70;;
46815;SDS011;32787;53.316;8.670;2022-07-23T13:16:31;2.20;;;0.82;;
46815;SDS011;32787;53.316;8.670;2022-07-23T13:18:58;3.17;;;0.70;;
46815;SDS011;32787;53.316;8.670;2022-07-23T13:21:25;3.25;;;0.80;;
46815;SDS011;32787;53.316;8.670;2022-07-23T13:23:52;2.33;;;0.82;;
46815;SDS011;32787;53.316;8.670;2022-07-23T13:26:18;2.90;;;0.73;;
46815;SDS011;32787;53.316;8.670;2022-07-23T13:28:43;3.60;;;0.80;;
46815;SDS011;32787;53.316;8.670;2022-07-23T13:31:09;3.08;;;0.80;;
46815;SDS011;32787;53.316;8.670;2022-07-23T13:33:35;2.03;;;0.60;;
46815;SDS011;32787;53.316;8.670;2022-07-23T13:36:00;3.38;;;0.70;;
46815;SDS011;32787;53.316;8.670;2022-07-23T13:38:26;2.65;;;0.60;;
46815;SDS011;32787;53.316;8.670;2022-07-23T13:40:52;3.50;;;0.77;;
46815;SDS011;32787;53.316;8.670;2022-07-23T13:43:24;2.35;;;0.70;;
46815;SDS011;32787;53.316;8.670;2022-07-23T13:45:51;4.53;;;0.80;;
46815;SDS011;32787;53.316;8.670;2022-07-23T13:48:17;4.18;;;0.73;;
46815;SDS011;32787;53.316;8.670;2022-07-23T13:50:44;4.97;;;0.90;;
46815;SDS011;32787;53.316;8.670;2022-07-23T13:53:11;3.47;;;0.90;;
46815;SDS011;32787;53.316;8.670;2022-07-23T13:55:39;3.05;;;0.95;;
46815;SDS011;32787;53.316;8.670;2022-07-23T13:58:06;2.72;;;0.70;;
46815;SDS011;32787;53.316;8.670;2022-07-23T14:00:34;4.07;;;0.70;;
46815;SDS011;32787;53.316;8.670;2022-07-23T14:03:01;2.13;;;0.77;;
46815;SDS011;32787;53.316;8.670;2022-07-23T14:05:27;2.03;;;0.80;;
46815;SDS011;32787;53.316;8.670;2022-07-23T14:07:53;2.78;;;0.80;;
46815;SDS011;32787;53.316;8.670;2022-07-23T14:10:19;2.83;;;0.90;;
46815;SDS011;32787;53.316;8.670;2022-07-23T14:12:47;2.50;;;0.70;;
46815;SDS011;32787;53.316;8.670;2022-07-23T14:15:14;4.95;;;0.90;;
46815;SDS011;32787;53.316;8.670;2022-07-23T14:17:40;2.95;;;0.80;;
46815;SDS011;32787;53.316;8.670;2022-07-23T14:20:08;3.35;;;0.90;;
46815;SDS011;32787;53.316;8.670;2022-07-23T14:22:34;2.13;;;0.60;;
46815;SDS011;32787;53.316;8.670;2022-07-23T14:25:00;2.30;;;0.80;;
46815;SDS011;32787;53.316;8.670;2022-07-23T14:27:27;3.90;;;1.00;;
46815;SDS011;32787;53.316;8.670;2022-07-23T14:29:54;3.92;;;0.75;;
46815;SDS011;32787;53.316;8.670;2022-07-23T14:32:20;2.20;;;0.70;;
46815;SDS011;32787;53.316;8.670;2022-07-23T14:34:46;4.03;;;1.00;;
46815;SDS011;32787;53.316;8.670;2022-07-23T14:37:12;3.95;;;1.00;;
46815;SDS011;32787;53.316;8.670;2022-07-23T14:39:38;4.55;;;0.88;;
46815;SDS011;32787;53.316;8.670;2022-07-23T14:42:05;1.85;;;0.70;;
46815;SDS011;32787;53.316;8.670;2022-07-23T14:44:31;5.63;;;1.00;;
46815;SDS011;32787;53.316;8.670;2022-07-23T14:46:57;3.38;;;0.82;;
46815;SDS011;32787;53.316;8.670;2022-07-23T14:49:24;5.45;;;1.17;;
46815;SDS011;32787;53.316;8.670;2022-07-23T14:51:51;2.70;;;0.98;;
46815;SDS011;32787;53.316;8.670;2022-07-23T14:54:16;3.50;;;0.90;;
46815;SDS011;32787;53.316;8.670;2022-07-23T14:56:42;3.38;;;0.80;;
46815;SDS011;32787;53.316;8.670;2022-07-23T14:59:08;4.20;;;0.98;;
46815;SDS011;32787;53.316;8.670;2022-07-23T15:01:34;3.83;;;0.68;;
46815;SDS011;32787;53.316;8.670;2022-07-23T15:04:00;2.50;;;0.70;;
46815;SDS011;32787;53.316;8.670;2022-07-23T15:06:26;3.35;;;0.75;;
46815;SDS011;32787;53.316;8.670;2022-07-23T15:08:51;2.67;;;0.60;;
46815;SDS011;32787;53.316;8.670;2022-07-23T15:11:17;2.42;;;0.70;;
46815;SDS011;32787;53.316;8.670;2022-07-23T15:13:43;3.30;;;0.90;;
46815;SDS011;32787;53.316;8.670;2022-07-23T15:16:09;5.15;;;0.90;;
46815;SDS011;32787;53.316;8.670;2022-07-23T15:18:34;4.78;;;1.05;;
46815;SDS011;32787;53.316;8.670;2022-07-23T15:21:01;2.97;;;0.70;;
46815;SDS011;32787;53.316;8.670;2022-07-23T15:23:27;4.45;;;0.90;;
46815;SDS011;32787;53.316;8.670;2022-07-23T15:25:54;3.20;;;0.80;;
46815;SDS011;32787;53.316;8.670;2022-07-23T15:28:20;2.30;;;0.90;;
46815;SDS011;32787;53.316;8.670;2022-07-23T15:30:46;2.83;;;0.82;;
46815;SDS011;32787;53.316;8.670;2022-07-23T15:33:12;2.63;;;0.90;;
46815;SDS011;32787;53.316;8.670;2022-07-23T15:35:37;4.13;;;0.90;;
46815;SDS011;32787;53.316;8.670;2022-07-23T15:38:03;2.38;;;0.70;;
46815;SDS011;32787;53.316;8.670;2022-07-23T15:40:29;3.60;;;0.90;;
46815;SDS011;32787;53.316;8.670;2022-07-23T15:42:54;3.53;;;0.82;;
46815;SDS011;32787;53.316;8.670;2022-07-23T15:45:20;2.72;;;0.90;;
46815;SDS011;32787;53.316;8.670;2022-07-23T15:47:46;2.90;;;0.75;;
46815;SDS011;32787;53.316;8.670;2022-07-23T15:50:13;2.53;;;1.00;;
46815;SDS011;32787;53.316;8.670;2022-07-23T15:52:39;3.45;;;0.90;;
46815;SDS011;32787;53.316;8.670;2022-07-23T15:55:05;3.10;;;0.70;;